METAR Data
IDs: Format: Raw Decoded Include TAF

Data at: 2334 UTC 19 Apr 2021

KSYN 192315Z AUTO 33011G19KT 10SM OVC060 04/M07 A3001 RMK AO2 T00361074
KSYN 192255Z AUTO 33011KT 10SM OVC060 04/M07 A3000 RMK AO2 T00361072
KSYN 192235Z AUTO 32010KT 10SM OVC060 04/M07 A3000 RMK AO2 T00361070
KSYN 192215Z AUTO 33016KT 10SM OVC060 04/M07 A3000 RMK AO2 T00371071
KSYN 192155Z AUTO 32013KT 10SM SCT049 OVC060 04/M07 A2999 RMK AO2 T00401072
KSYN 192135Z AUTO 33011KT 10SM BKN050 OVC060 04/M07 A2999 RMK AO2 T00371071
KSYN 192115Z AUTO 33013G20KT 10SM OVC060 05/M06 A2999 RMK AO2 T00461063
KSYN 192055Z AUTO 33014KT 10SM SCT047 OVC060 04/M05 A2999 RMK AO2 T00431055
KSYN 192035Z AUTO 33012G20KT 10SM OVC050 04/M06 A2999 RMK AO2 T00351058
KSYN 192015Z AUTO 34013G17KT 10SM OVC050 04/M06 A2998 RMK AO2 T00361065
KSYN 191955Z AUTO 33015KT 10SM SCT046 OVC050 04/M06 A2998 RMK AO2 T00361059
KSYN 191935Z AUTO 35011G19KT 10SM SCT047 OVC050 03/M06 A2998 RMK AO2 T00341063
KSYN 191915Z AUTO 31014G22KT 10SM SCT045 OVC050 04/M06 A2998 RMK AO2 T00351062
KSYN 191855Z AUTO 33013KT 10SM BKN043 OVC049 03/M06 A2998 RMK AO2 T00281056
KSYN 191835Z AUTO 32014G20KT 10SM BKN042 OVC048 03/M06 A2999 RMK AO2 T00261063
KSYN 191815Z AUTO 31013G19KT 10SM SCT040 OVC050 03/M06 A2999 RMK AO2 T00291058
KSYN 191755Z AUTO 33010G19KT 10SM SCT040 BKN046 OVC050 03/M06 A2998 RMK AO2 T00291057 10032 20007
KSYN 191735Z AUTO 32013G21KT 10SM SCT040 OVC050 03/M06 A2998 RMK AO2 T00311056
KSYN 191715Z AUTO 31015KT 10SM SCT038 OVC050 03/M06 A2998 RMK AO2 T00271057
KSYN 191655Z AUTO 31013G20KT 10SM SCT041 OVC048 02/M06 A2998 RMK AO2 T00221057
KSYN 191635Z AUTO 31015G21KT 10SM BKN040 OVC047 02/M06 A2998 RMK AO2 T00191059
KSYN 191615Z AUTO 34015G22KT 10SM SCT038 OVC047 02/M06 A2998 RMK AO2 T00181058
KSYN 191555Z AUTO 32014G20KT 10SM SCT043 OVC049 02/M05 A2998 RMK AO2 T00201053
KSYN 191535Z AUTO 32014G20KT 10SM OVC045 02/M06 A2998 RMK AO2 T00161057
KSYN 191515Z AUTO 32014G17KT 10SM OVC041 01/M05 A2998 RMK AO2 T00111051
KSYN 191455Z AUTO 31013KT 10SM SCT030 OVC041 01/M05 A2998 RMK AO2 T00101047
KSYN 191435Z AUTO 31014G18KT 10SM SCT030 SCT034 OVC043 01/M04 A2997 RMK AO2 T00121045
KSYN 191415Z AUTO 32015G19KT 10SM SCT030 OVC043 01/M05 A2997 RMK AO2 T00111048
KSYN 191355Z AUTO 33015G19KT 10SM OVC041 01/M04 A2996 RMK AO2 T00111043
KSYN 191335Z AUTO 31013G18KT 10SM OVC038 01/M04 A2997 RMK AO2 T00081041
KSYN 191315Z AUTO 32012KT 10SM OVC036 01/M04 A2996 RMK AO2 T00081042
KSYN 191255Z AUTO 31013KT 10SM BKN039 OVC045 01/M05 A2996 RMK AO2 T00081046
KSYN 191235Z AUTO 32011G16KT 10SM OVC042 01/M04 A2995 RMK AO2 T00081043
KSYN 191215Z AUTO 32012KT 10SM OVC040 01/M04 A2994 RMK AO2 T00071043
KSYN 191155Z AUTO 32014KT 10SM OVC040 01/M04 A2994 RMK AO2 70001 T00071044 10040 20006
KSYN 191135Z AUTO 32014KT 10SM OVC040 01/M04 A2994 RMK AO2 T00061043
KSYN 191115Z AUTO 32013G19KT 10SM OVC040 01/M04 A2993 RMK AO2 T00071042
KSYN 191055Z AUTO 32012KT 10SM OVC040 01/M04 A2992 RMK AO2 T00071040
KSYN 191035Z AUTO 32016G19KT 10SM SCT032 OVC040 01/M04 A2993 RMK AO2 T00081039
KSYN 191015Z AUTO 32015G19KT 10SM SCT029 OVC036 01/M04 A2992 RMK AO2 T00101036
KSYN 190955Z AUTO 31016G20KT 10SM BKN036 OVC042 01/M04 A2992 RMK AO2 T00141036
KSYN 190935Z AUTO 33014G19KT 10SM OVC044 02/M03 A2991 RMK AO2 T00171030
KSYN 190915Z AUTO 32012KT 10SM OVC044 02/M02 A2990 RMK AO2 T00201024
KSYN 190855Z AUTO 32013G19KT 10SM OVC042 02/M02 A2990 RMK AO2 T00231021
KSYN 190835Z AUTO 31016KT 10SM SCT024 SCT029 OVC042 03/M02 A2989 RMK AO2 T00251021
KSYN 190815Z AUTO 33009KT 10SM SCT022 SCT028 OVC042 03/M01 A2989 RMK AO2 T00261006
KSYN 190755Z AUTO 34010G15KT 10SM -RA SCT020 BKN027 OVC040 03/00 A2989 RMK AO2 T00251005
KSYN 190735Z AUTO 33010G20KT 7SM DZ SCT022 SCT029 OVC042 03/00 A2989 RMK AO2 T00330003
KSYN 190715Z AUTO 33007KT 10SM SCT029 OVC042 04/00 A2988 RMK AO2 T00391005
KSYN 190655Z AUTO 34009KT 10SM OVC044 04/00 A2988 RMK AO2 T00381002
KSYN 190635Z AUTO 33006KT 10SM OVC044 04/00 A2989 RMK AO2 T00360000
KSYN 190615Z AUTO 32008KT 10SM SCT031 BKN042 03/00 A2989 RMK AO2 T00300000
KSYN 190555Z AUTO 34006KT 10SM SCT031 SCT037 SCT043 03/M01 A2988 RMK AO2 60001 T00291006 10126 20029 401801015
KSYN 190535Z AUTO 35011KT 10SM CLR 04/M01 A2988 RMK AO2 T00361010